sensor_id;sensor_type;location;lat;lon;timestamp;P1;durP1;ratioP1;P2;durP2;ratioP2
3995;SDS011;2012;49.794;9.722;2023-01-29T00:02:12;8.10;;;6.17;;
3995;SDS011;2012;49.794;9.722;2023-01-29T00:04:39;6.40;;;5.23;;
3995;SDS011;2012;49.794;9.722;2023-01-29T00:07:05;6.03;;;5.10;;
3995;SDS011;2012;49.794;9.722;2023-01-29T00:09:33;4.93;;;3.70;;
3995;SDS011;2012;49.794;9.722;2023-01-29T00:12:00;7.90;;;4.30;;
3995;SDS011;2012;49.794;9.722;2023-01-29T00:14:27;6.07;;;5.27;;
3995;SDS011;2012;49.794;9.722;2023-01-29T00:16:54;6.07;;;4.93;;
3995;SDS011;2012;49.794;9.722;2023-01-29T00:19:20;9.47;;;5.43;;
3995;SDS011;2012;49.794;9.722;2023-01-29T00:21:47;7.37;;;5.80;;
3995;SDS011;2012;49.794;9.722;2023-01-29T00:24:14;9.27;;;4.97;;
3995;SDS011;2012;49.794;9.722;2023-01-29T00:26:41;5.43;;;4.93;;
3995;SDS011;2012;49.794;9.722;2023-01-29T00:29:08;8.73;;;6.20;;
3995;SDS011;2012;49.794;9.722;2023-01-29T00:31:35;5.67;;;4.37;;
3995;SDS011;2012;49.794;9.722;2023-01-29T00:34:01;5.17;;;4.57;;
3995;SDS011;2012;49.794;9.722;2023-01-29T00:36:28;6.40;;;4.47;;
3995;SDS011;2012;49.794;9.722;2023-01-29T00:38:56;5.03;;;4.53;;
3995;SDS011;2012;49.794;9.722;2023-01-29T00:41:30;6.13;;;4.40;;
3995;SDS011;2012;49.794;9.722;2023-01-29T00:44:17;5.73;;;5.13;;
3995;SDS011;2012;49.794;9.722;2023-01-29T00:47:02;7.30;;;4.00;;
3995;SDS011;2012;49.794;9.722;2023-01-29T00:49:30;6.43;;;5.00;;
3995;SDS011;2012;49.794;9.722;2023-01-29T00:51:57;4.67;;;4.23;;
3995;SDS011;2012;49.794;9.722;2023-01-29T00:54:42;11.23;;;4.87;;
3995;SDS011;2012;49.794;9.722;2023-01-29T00:57:09;4.57;;;4.17;;
3995;SDS011;2012;49.794;9.722;2023-01-29T00:59:36;4.33;;;3.90;;
3995;SDS011;2012;49.794;9.722;2023-01-29T01:02:03;5.20;;;4.40;;
3995;SDS011;2012;49.794;9.722;2023-01-29T01:04:48;5.23;;;4.57;;
3995;SDS011;2012;49.794;9.722;2023-01-29T01:07:15;5.00;;;4.27;;
3995;SDS011;2012;49.794;9.722;2023-01-29T01:09:41;5.63;;;5.03;;
3995;SDS011;2012;49.794;9.722;2023-01-29T01:12:27;5.30;;;4.60;;
3995;SDS011;2012;49.794;9.722;2023-01-29T01:14:54;5.03;;;4.17;;
3995;SDS011;2012;49.794;9.722;2023-01-29T01:17:20;5.90;;;4.03;;
3995;SDS011;2012;49.794;9.722;2023-01-29T01:19:47;5.70;;;4.80;;
3995;SDS011;2012;49.794;9.722;2023-01-29T01:22:14;4.43;;;4.03;;
3995;SDS011;2012;49.794;9.722;2023-01-29T01:24:41;4.97;;;4.47;;
3995;SDS011;2012;49.794;9.722;2023-01-29T01:27:07;8.30;;;4.90;;
3995;SDS011;2012;49.794;9.722;2023-01-29T01:29:34;4.80;;;4.23;;
3995;SDS011;2012;49.794;9.722;2023-01-29T01:32:01;4.93;;;4.30;;
3995;SDS011;2012;49.794;9.722;2023-01-29T01:34:28;5.43;;;4.93;;
3995;SDS011;2012;49.794;9.722;2023-01-29T01:36:55;9.07;;;5.20;;
3995;SDS011;2012;49.794;9.722;2023-01-29T01:39:24;10.00;;;4.80;;
3995;SDS011;2012;49.794;9.722;2023-01-29T01:41:51;7.60;;;4.37;;
3995;SDS011;2012;49.794;9.722;2023-01-29T01:47:16;5.50;;;4.07;;
3995;SDS011;2012;49.794;9.722;2023-01-29T01:49:51;5.30;;;4.80;;
3995;SDS011;2012;49.794;9.722;2023-01-29T01:52:19;4.53;;;4.03;;
3995;SDS011;2012;49.794;9.722;2023-01-29T01:54:47;5.20;;;4.57;;
3995;SDS011;2012;49.794;9.722;2023-01-29T01:57:17;11.90;;;5.00;;
3995;SDS011;2012;49.794;9.722;2023-01-29T01:59:52;4.70;;;4.23;;
3995;SDS011;2012;49.794;9.722;2023-01-29T02:02:38;5.83;;;4.33;;
3995;SDS011;2012;49.794;9.722;2023-01-29T02:05:25;6.90;;;4.67;;
3995;SDS011;2012;49.794;9.722;2023-01-29T02:08:11;3.80;;;3.50;;
3995;SDS011;2012;49.794;9.722;2023-01-29T02:10:57;4.43;;;4.07;;
3995;SDS011;2012;49.794;9.722;2023-01-29T02:13:24;6.87;;;5.17;;
3995;SDS011;2012;49.794;9.722;2023-01-29T02:15:51;4.40;;;4.00;;
3995;SDS011;2012;49.794;9.722;2023-01-29T02:18:19;5.60;;;4.97;;
3995;SDS011;2012;49.794;9.722;2023-01-29T02:20:48;6.47;;;4.57;;
3995;SDS011;2012;49.794;9.722;2023-01-29T02:26:39;4.20;;;3.80;;
3995;SDS011;2012;49.794;9.722;2023-01-29T02:29:17;5.63;;;4.57;;
3995;SDS011;2012;49.794;9.722;2023-01-29T02:32:05;5.77;;;4.60;;
3995;SDS011;2012;49.794;9.722;2023-01-29T02:34:45;6.10;;;4.70;;
3995;SDS011;2012;49.794;9.722;2023-01-29T02:37:41;5.10;;;4.40;;
3995;SDS011;2012;49.794;9.722;2023-01-29T02:40:31;6.27;;;4.23;;
3995;SDS011;2012;49.794;9.722;2023-01-29T02:43:29;4.23;;;3.80;;
3995;SDS011;2012;49.794;9.722;2023-01-29T02:51:23;7.63;;;5.60;;
3995;SDS011;2012;49.794;9.722;2023-01-29T02:54:05;6.43;;;4.63;;
3995;SDS011;2012;49.794;9.722;2023-01-29T02:56:53;4.57;;;4.17;;
3995;SDS011;2012;49.794;9.722;2023-01-29T02:59:24;5.50;;;4.30;;
3995;SDS011;2012;49.794;9.722;2023-01-29T03:02:07;6.57;;;4.77;;
3995;SDS011;2012;49.794;9.722;2023-01-29T03:04:39;5.10;;;4.50;;
3995;SDS011;2012;49.794;9.722;2023-01-29T03:07:15;5.43;;;4.47;;
3995;SDS011;2012;49.794;9.722;2023-01-29T03:10:06;5.83;;;5.00;;
3995;SDS011;2012;49.794;9.722;2023-01-29T03:12:50;7.40;;;4.80;;
3995;SDS011;2012;49.794;9.722;2023-01-29T03:15:31;6.33;;;5.13;;
3995;SDS011;2012;49.794;9.722;2023-01-29T03:18:07;6.70;;;5.10;;
3995;SDS011;2012;49.794;9.722;2023-01-29T03:20:39;7.43;;;4.60;;
3995;SDS011;2012;49.794;9.722;2023-01-29T03:23:34;5.37;;;4.30;;
3995;SDS011;2012;49.794;9.722;2023-01-29T03:26:19;5.47;;;4.77;;
3995;SDS011;2012;49.794;9.722;2023-01-29T03:29:06;6.00;;;4.67;;
3995;SDS011;2012;49.794;9.722;2023-01-29T03:31:54;10.00;;;4.87;;
3995;SDS011;2012;49.794;9.722;2023-01-29T03:34:42;5.03;;;4.60;;
3995;SDS011;2012;49.794;9.722;2023-01-29T03:40:01;8.67;;;4.63;;
3995;SDS011;2012;49.794;9.722;2023-01-29T03:45:30;6.30;;;5.10;;
3995;SDS011;2012;49.794;9.722;2023-01-29T03:51:03;4.80;;;4.23;;
3995;SDS011;2012;49.794;9.722;2023-01-29T03:53:57;9.37;;;4.13;;
3995;SDS011;2012;49.794;9.722;2023-01-29T03:56:50;7.73;;;5.10;;
3995;SDS011;2012;49.794;9.722;2023-01-29T03:59:54;7.17;;;4.20;;
3995;SDS011;2012;49.794;9.722;2023-01-29T04:02:29;4.40;;;4.00;;
3995;SDS011;2012;49.794;9.722;2023-01-29T04:05:03;5.33;;;4.70;;
3995;SDS011;2012;49.794;9.722;2023-01-29T04:07:35;5.83;;;4.60;;
3995;SDS011;2012;49.794;9.722;2023-01-29T04:12:46;5.97;;;4.30;;
3995;SDS011;2012;49.794;9.722;2023-01-29T04:15:17;6.53;;;4.67;;
3995;SDS011;2012;49.794;9.722;2023-01-29T04:17:48;9.73;;;4.70;;
3995;SDS011;2012;49.794;9.722;2023-01-29T04:20:18;4.93;;;4.27;;
3995;SDS011;2012;49.794;9.722;2023-01-29T04:22:46;5.80;;;4.50;;
3995;SDS011;2012;49.794;9.722;2023-01-29T04:25:16;4.80;;;4.40;;
3995;SDS011;2012;49.794;9.722;2023-01-29T04:36:14;5.50;;;4.30;;
3995;SDS011;2012;49.794;9.722;2023-01-29T04:44:35;3.83;;;3.40;;
3995;SDS011;2012;49.794;9.722;2023-01-29T04:47:05;6.20;;;4.57;;
3995;SDS011;2012;49.794;9.722;2023-01-29T04:49:41;4.50;;;4.10;;
3995;SDS011;2012;49.794;9.722;2023-01-29T04:55:28;5.27;;;4.77;;
3995;SDS011;2012;49.794;9.722;2023-01-29T04:58:17;7.50;;;4.40;;
3995;SDS011;2012;49.794;9.722;2023-01-29T05:01:03;4.80;;;4.10;;
3995;SDS011;2012;49.794;9.722;2023-01-29T05:03:33;5.27;;;4.77;;
3995;SDS011;2012;49.794;9.722;2023-01-29T05:06:02;4.40;;;4.10;;
3995;SDS011;2012;49.794;9.722;2023-01-29T05:08:32;4.80;;;4.30;;
3995;SDS011;2012;49.794;9.722;2023-01-29T05:11:00;4.77;;;4.13;;
3995;SDS011;2012;49.794;9.722;2023-01-29T05:13:27;5.77;;;4.93;;
3995;SDS011;2012;49.794;9.722;2023-01-29T05:15:59;4.90;;;4.17;;
3995;SDS011;2012;49.794;9.722;2023-01-29T05:18:34;4.60;;;3.93;;
3995;SDS011;2012;49.794;9.722;2023-01-29T05:21:02;6.30;;;4.70;;
3995;SDS011;2012;49.794;9.722;2023-01-29T05:23:32;5.10;;;4.60;;
3995;SDS011;2012;49.794;9.722;2023-01-29T05:25:58;8.87;;;5.23;;
3995;SDS011;2012;49.794;9.722;2023-01-29T05:28:25;6.80;;;5.07;;
3995;SDS011;2012;49.794;9.722;2023-01-29T05:30:53;5.50;;;4.93;;
3995;SDS011;2012;49.794;9.722;2023-01-29T05:33:25;7.80;;;5.03;;
3995;SDS011;2012;49.794;9.722;2023-01-29T05:35:54;8.97;;;6.03;;
3995;SDS011;2012;49.794;9.722;2023-01-29T05:38:21;6.07;;;5.20;;
3995;SDS011;2012;49.794;9.722;2023-01-29T05:40:48;5.77;;;5.20;;
3995;SDS011;2012;49.794;9.722;2023-01-29T05:43:23;9.33;;;4.57;;
3995;SDS011;2012;49.794;9.722;2023-01-29T05:45:57;4.73;;;4.17;;
3995;SDS011;2012;49.794;9.722;2023-01-29T05:48:25;5.07;;;4.57;;
3995;SDS011;2012;49.794;9.722;2023-01-29T05:51:01;5.27;;;4.77;;
3995;SDS011;2012;49.794;9.722;2023-01-29T05:53:28;8.23;;;5.00;;
3995;SDS011;2012;49.794;9.722;2023-01-29T05:55:56;8.73;;;5.37;;
3995;SDS011;2012;49.794;9.722;2023-01-29T05:58:26;11.40;;;5.80;;
3995;SDS011;2012;49.794;9.722;2023-01-29T06:00:55;5.70;;;5.00;;
3995;SDS011;2012;49.794;9.722;2023-01-29T06:03:21;5.83;;;5.23;;
3995;SDS011;2012;49.794;9.722;2023-01-29T06:05:48;8.23;;;5.63;;
3995;SDS011;2012;49.794;9.722;2023-01-29T06:08:15;7.20;;;5.57;;
3995;SDS011;2012;49.794;9.722;2023-01-29T06:10:41;10.87;;;6.13;;
3995;SDS011;2012;49.794;9.722;2023-01-29T06:13:08;8.00;;;5.87;;
3995;SDS011;2012;49.794;9.722;2023-01-29T06:15:37;8.20;;;5.77;;
3995;SDS011;2012;49.794;9.722;2023-01-29T06:18:05;6.60;;;4.90;;
3995;SDS011;2012;49.794;9.722;2023-01-29T06:20:31;7.40;;;4.60;;
3995;SDS011;2012;49.794;9.722;2023-01-29T06:22:58;5.23;;;4.47;;
3995;SDS011;2012;49.794;9.722;2023-01-29T06:25:25;6.27;;;4.47;;
3995;SDS011;2012;49.794;9.722;2023-01-29T06:27:52;5.90;;;5.27;;
3995;SDS011;2012;49.794;9.722;2023-01-29T06:30:18;5.40;;;4.40;;
3995;SDS011;2012;49.794;9.722;2023-01-29T06:32:45;7.00;;;4.30;;
3995;SDS011;2012;49.794;9.722;2023-01-29T06:35:12;5.47;;;4.97;;
3995;SDS011;2012;49.794;9.722;2023-01-29T06:37:39;5.00;;;4.50;;
3995;SDS011;2012;49.794;9.722;2023-01-29T06:40:06;4.37;;;3.97;;
3995;SDS011;2012;49.794;9.722;2023-01-29T06:42:34;5.10;;;4.27;;
3995;SDS011;2012;49.794;9.722;2023-01-29T06:45:00;7.20;;;4.53;;
3995;SDS011;2012;49.794;9.722;2023-01-29T06:47:27;5.67;;;4.13;;
3995;SDS011;2012;49.794;9.722;2023-01-29T06:49:54;7.20;;;3.97;;
3995;SDS011;2012;49.794;9.722;2023-01-29T06:52:20;4.10;;;3.70;;
3995;SDS011;2012;49.794;9.722;2023-01-29T06:54:47;4.47;;;4.07;;
3995;SDS011;2012;49.794;9.722;2023-01-29T06:57:14;4.57;;;3.80;;
3995;SDS011;2012;49.794;9.722;2023-01-29T06:59:40;4.33;;;3.93;;
3995;SDS011;2012;49.794;9.722;2023-01-29T07:02:07;8.27;;;3.97;;
3995;SDS011;2012;49.794;9.722;2023-01-29T07:04:34;5.40;;;3.83;;
3995;SDS011;2012;49.794;9.722;2023-01-29T07:07:02;4.40;;;4.00;;
3995;SDS011;2012;49.794;9.722;2023-01-29T07:09:29;4.10;;;3.80;;
3995;SDS011;2012;49.794;9.722;2023-01-29T07:11:56;4.17;;;3.77;;
3995;SDS011;2012;49.794;9.722;2023-01-29T07:14:23;4.53;;;3.97;;
3995;SDS011;2012;49.794;9.722;2023-01-29T07:16:49;4.53;;;4.03;;
3995;SDS011;2012;49.794;9.722;2023-01-29T07:19:16;8.30;;;3.90;;
3995;SDS011;2012;49.794;9.722;2023-01-29T07:21:43;8.40;;;4.90;;
3995;SDS011;2012;49.794;9.722;2023-01-29T07:24:10;5.23;;;4.73;;
3995;SDS011;2012;49.794;9.722;2023-01-29T07:26:36;5.60;;;5.00;;
3995;SDS011;2012;49.794;9.722;2023-01-29T07:29:03;9.57;;;4.60;;
3995;SDS011;2012;49.794;9.722;2023-01-29T07:31:30;7.80;;;5.17;;
3995;SDS011;2012;49.794;9.722;2023-01-29T07:33:57;7.77;;;5.03;;
3995;SDS011;2012;49.794;9.722;2023-01-29T07:36:23;4.60;;;4.20;;
3995;SDS011;2012;49.794;9.722;2023-01-29T07:38:50;5.20;;;4.50;;
3995;SDS011;2012;49.794;9.722;2023-01-29T07:41:17;6.37;;;3.90;;
3995;SDS011;2012;49.794;9.722;2023-01-29T07:43:44;5.57;;;4.13;;
3995;SDS011;2012;49.794;9.722;2023-01-29T07:46:11;7.77;;;3.87;;
3995;SDS011;2012;49.794;9.722;2023-01-29T07:48:37;4.70;;;3.77;;
3995;SDS011;2012;49.794;9.722;2023-01-29T07:51:04;6.37;;;5.00;;
3995;SDS011;2012;49.794;9.722;2023-01-29T07:53:31;5.97;;;4.30;;
3995;SDS011;2012;49.794;9.722;2023-01-29T07:55:58;5.40;;;4.60;;
3995;SDS011;2012;49.794;9.722;2023-01-29T07:58:25;8.13;;;5.00;;
3995;SDS011;2012;49.794;9.722;2023-01-29T08:00:51;5.67;;;4.17;;
3995;SDS011;2012;49.794;9.722;2023-01-29T08:03:18;7.13;;;4.90;;
3995;SDS011;2012;49.794;9.722;2023-01-29T08:05:46;6.00;;;4.70;;
3995;SDS011;2012;49.794;9.722;2023-01-29T08:08:13;7.47;;;5.03;;
3995;SDS011;2012;49.794;9.722;2023-01-29T08:10:40;9.03;;;5.23;;
3995;SDS011;2012;49.794;9.722;2023-01-29T08:13:07;5.63;;;4.40;;
3995;SDS011;2012;49.794;9.722;2023-01-29T08:15:34;5.83;;;5.30;;
3995;SDS011;2012;49.794;9.722;2023-01-29T08:18:21;6.13;;;5.40;;
3995;SDS011;2012;49.794;9.722;2023-01-29T08:20:48;6.23;;;4.60;;
3995;SDS011;2012;49.794;9.722;2023-01-29T08:23:15;5.40;;;4.70;;
3995;SDS011;2012;49.794;9.722;2023-01-29T08:25:41;5.10;;;4.50;;
3995;SDS011;2012;49.794;9.722;2023-01-29T08:28:08;4.83;;;4.17;;
3995;SDS011;2012;49.794;9.722;2023-01-29T08:30:37;4.73;;;4.07;;
3995;SDS011;2012;49.794;9.722;2023-01-29T08:33:04;5.70;;;3.70;;
3995;SDS011;2012;49.794;9.722;2023-01-29T08:35:30;4.60;;;4.20;;
3995;SDS011;2012;49.794;9.722;2023-01-29T08:37:58;3.87;;;3.47;;
3995;SDS011;2012;49.794;9.722;2023-01-29T08:40:27;6.80;;;4.30;;
3995;SDS011;2012;49.794;9.722;2023-01-29T08:42:57;4.83;;;4.40;;
3995;SDS011;2012;49.794;9.722;2023-01-29T08:45:28;5.70;;;4.43;;
3995;SDS011;2012;49.794;9.722;2023-01-29T08:47:55;4.43;;;4.03;;
3995;SDS011;2012;49.794;9.722;2023-01-29T08:50:22;4.57;;;4.17;;
3995;SDS011;2012;49.794;9.722;2023-01-29T08:52:49;6.17;;;4.60;;
3995;SDS011;2012;49.794;9.722;2023-01-29T08:55:16;6.30;;;3.93;;
3995;SDS011;2012;49.794;9.722;2023-01-29T08:57:43;4.57;;;3.83;;
3995;SDS011;2012;49.794;9.722;2023-01-29T09:00:10;5.50;;;4.40;;
3995;SDS011;2012;49.794;9.722;2023-01-29T09:02:37;4.00;;;3.70;;
3995;SDS011;2012;49.794;9.722;2023-01-29T09:05:04;4.83;;;3.87;;
3995;SDS011;2012;49.794;9.722;2023-01-29T09:07:31;3.93;;;3.50;;
3995;SDS011;2012;49.794;9.722;2023-01-29T09:09:58;4.30;;;3.63;;
3995;SDS011;2012;49.794;9.722;2023-01-29T09:12:25;6.27;;;4.20;;
3995;SDS011;2012;49.794;9.722;2023-01-29T09:14:52;6.27;;;4.23;;
3995;SDS011;2012;49.794;9.722;2023-01-29T09:17:18;4.70;;;4.10;;
3995;SDS011;2012;49.794;9.722;2023-01-29T09:19:45;4.30;;;3.90;;
3995;SDS011;2012;49.794;9.722;2023-01-29T09:22:12;6.73;;;3.93;;
3995;SDS011;2012;49.794;9.722;2023-01-29T09:24:39;8.37;;;3.90;;
3995;SDS011;2012;49.794;9.722;2023-01-29T09:27:05;4.17;;;3.77;;
3995;SDS011;2012;49.794;9.722;2023-01-29T09:29:32;4.97;;;3.70;;
3995;SDS011;2012;49.794;9.722;2023-01-29T09:32:01;4.17;;;3.73;;
3995;SDS011;2012;49.794;9.722;2023-01-29T09:34:29;4.10;;;3.30;;
3995;SDS011;2012;49.794;9.722;2023-01-29T09:36:56;3.30;;;2.70;;
3995;SDS011;2012;49.794;9.722;2023-01-29T09:39:24;7.83;;;3.67;;
3995;SDS011;2012;49.794;9.722;2023-01-29T09:41:52;5.27;;;3.33;;
3995;SDS011;2012;49.794;9.722;2023-01-29T09:45:01;3.37;;;3.17;;
3995;SDS011;2012;49.794;9.722;2023-01-29T09:47:34;4.03;;;3.63;;
3995;SDS011;2012;49.794;9.722;2023-01-29T09:50:12;3.67;;;3.37;;
3995;SDS011;2012;49.794;9.722;2023-01-29T09:53:19;5.27;;;3.17;;
3995;SDS011;2012;49.794;9.722;2023-01-29T09:56:12;3.57;;;3.33;;
3995;SDS011;2012;49.794;9.722;2023-01-29T09:58:42;7.87;;;3.73;;
3995;SDS011;2012;49.794;9.722;2023-01-29T10:06:49;4.37;;;3.73;;
3995;SDS011;2012;49.794;9.722;2023-01-29T10:09:46;4.37;;;3.97;;
3995;SDS011;2012;49.794;9.722;2023-01-29T10:13:10;4.23;;;3.60;;
3995;SDS011;2012;49.794;9.722;2023-01-29T10:15:34;5.17;;;3.60;;
3995;SDS011;2012;49.794;9.722;2023-01-29T10:24:00;5.43;;;4.20;;
3995;SDS011;2012;49.794;9.722;2023-01-29T10:26:49;13.43;;;4.30;;
3995;SDS011;2012;49.794;9.722;2023-01-29T10:29:18;5.13;;;4.60;;
3995;SDS011;2012;49.794;9.722;2023-01-29T10:31:49;7.20;;;4.77;;
3995;SDS011;2012;49.794;9.722;2023-01-29T10:34:34;5.77;;;3.17;;
3995;SDS011;2012;49.794;9.722;2023-01-29T10:37:16;5.20;;;3.80;;
3995;SDS011;2012;49.794;9.722;2023-01-29T10:39:49;6.57;;;4.90;;
3995;SDS011;2012;49.794;9.722;2023-01-29T10:42:18;6.60;;;5.67;;
3995;SDS011;2012;49.794;9.722;2023-01-29T10:45:05;10.37;;;4.77;;
3995;SDS011;2012;49.794;9.722;2023-01-29T10:48:00;7.97;;;6.00;;
3995;SDS011;2012;49.794;9.722;2023-01-29T10:59:10;6.17;;;4.67;;
3995;SDS011;2012;49.794;9.722;2023-01-29T11:02:00;4.33;;;3.70;;
3995;SDS011;2012;49.794;9.722;2023-01-29T11:04:29;5.00;;;4.27;;
3995;SDS011;2012;49.794;9.722;2023-01-29T11:06:57;7.53;;;5.00;;
3995;SDS011;2012;49.794;9.722;2023-01-29T11:09:27;5.70;;;4.20;;
3995;SDS011;2012;49.794;9.722;2023-01-29T11:12:14;6.63;;;4.37;;
3995;SDS011;2012;49.794;9.722;2023-01-29T11:14:48;8.83;;;4.70;;
3995;SDS011;2012;49.794;9.722;2023-01-29T11:17:19;7.23;;;5.07;;
3995;SDS011;2012;49.794;9.722;2023-01-29T11:19:49;8.10;;;6.70;;
3995;SDS011;2012;49.794;9.722;2023-01-29T11:22:17;5.93;;;5.33;;
3995;SDS011;2012;49.794;9.722;2023-01-29T11:27:58;9.23;;;4.80;;
3995;SDS011;2012;49.794;9.722;2023-01-29T11:30:30;5.63;;;4.93;;
3995;SDS011;2012;49.794;9.722;2023-01-29T11:33:22;7.77;;;5.13;;
3995;SDS011;2012;49.794;9.722;2023-01-29T11:35:49;8.07;;;5.10;;
3995;SDS011;2012;49.794;9.722;2023-01-29T11:40:51;5.23;;;4.40;;
3995;SDS011;2012;49.794;9.722;2023-01-29T11:43:27;6.57;;;4.87;;
3995;SDS011;2012;49.794;9.722;2023-01-29T11:46:04;7.07;;;5.23;;
3995;SDS011;2012;49.794;9.722;2023-01-29T11:48:41;7.50;;;5.10;;
3995;SDS011;2012;49.794;9.722;2023-01-29T11:51:30;7.30;;;4.90;;
3995;SDS011;2012;49.794;9.722;2023-01-29T11:53:58;6.27;;;5.07;;
3995;SDS011;2012;49.794;9.722;2023-01-29T11:56:28;5.47;;;4.60;;
3995;SDS011;2012;49.794;9.722;2023-01-29T11:59:03;5.00;;;4.40;;
3995;SDS011;2012;49.794;9.722;2023-01-29T12:01:37;5.80;;;5.00;;
3995;SDS011;2012;49.794;9.722;2023-01-29T12:04:19;4.83;;;4.33;;
3995;SDS011;2012;49.794;9.722;2023-01-29T12:06:49;6.20;;;4.40;;
3995;SDS011;2012;49.794;9.722;2023-01-29T12:09:18;10.20;;;4.83;;
3995;SDS011;2012;49.794;9.722;2023-01-29T12:11:47;5.47;;;4.97;;
3995;SDS011;2012;49.794;9.722;2023-01-29T12:17:04;7.07;;;6.27;;
3995;SDS011;2012;49.794;9.722;2023-01-29T12:19:49;7.37;;;4.57;;
3995;SDS011;2012;49.794;9.722;2023-01-29T12:22:21;5.93;;;5.10;;
3995;SDS011;2012;49.794;9.722;2023-01-29T12:24:57;4.77;;;4.27;;
3995;SDS011;2012;49.794;9.722;2023-01-29T12:27:32;7.10;;;4.30;;
3995;SDS011;2012;49.794;9.722;2023-01-29T12:30:14;6.03;;;4.77;;
3995;SDS011;2012;49.794;9.722;2023-01-29T12:32:48;5.37;;;4.20;;
3995;SDS011;2012;49.794;9.722;2023-01-29T12:35:29;8.70;;;3.80;;
3995;SDS011;2012;49.794;9.722;2023-01-29T12:38:07;7.30;;;3.50;;
3995;SDS011;2012;49.794;9.722;2023-01-29T12:40:42;5.97;;;3.80;;
3995;SDS011;2012;49.794;9.722;2023-01-29T12:43:18;6.63;;;4.40;;
3995;SDS011;2012;49.794;9.722;2023-01-29T12:45:52;8.93;;;4.33;;
3995;SDS011;2012;49.794;9.722;2023-01-29T12:48:30;4.80;;;4.30;;
3995;SDS011;2012;49.794;9.722;2023-01-29T12:51:05;6.23;;;4.93;;
3995;SDS011;2012;49.794;9.722;2023-01-29T12:53:40;4.70;;;4.30;;
3995;SDS011;2012;49.794;9.722;2023-01-29T12:56:36;4.33;;;3.60;;
3995;SDS011;2012;49.794;9.722;2023-01-29T13:05:19;4.97;;;4.30;;
3995;SDS011;2012;49.794;9.722;2023-01-29T13:07:51;6.17;;;5.00;;
3995;SDS011;2012;49.794;9.722;2023-01-29T13:10:25;5.90;;;4.13;;
3995;SDS011;2012;49.794;9.722;2023-01-29T13:13:04;5.27;;;4.80;;
3995;SDS011;2012;49.794;9.722;2023-01-29T13:15:39;5.43;;;4.07;;
3995;SDS011;2012;49.794;9.722;2023-01-29T13:21:14;5.47;;;4.00;;
3995;SDS011;2012;49.794;9.722;2023-01-29T13:23:49;5.43;;;3.57;;
3995;SDS011;2012;49.794;9.722;2023-01-29T13:26:18;4.27;;;3.87;;
3995;SDS011;2012;49.794;9.722;2023-01-29T13:28:46;5.40;;;4.70;;
3995;SDS011;2012;49.794;9.722;2023-01-29T13:34:02;7.27;;;4.90;;
3995;SDS011;2012;49.794;9.722;2023-01-29T13:36:30;6.33;;;4.43;;
3995;SDS011;2012;49.794;9.722;2023-01-29T13:39:01;6.63;;;4.30;;
3995;SDS011;2012;49.794;9.722;2023-01-29T13:41:38;3.60;;;3.30;;
3995;SDS011;2012;49.794;9.722;2023-01-29T13:44:16;4.00;;;3.57;;
3995;SDS011;2012;49.794;9.722;2023-01-29T13:46:47;6.67;;;3.80;;
3995;SDS011;2012;49.794;9.722;2023-01-29T13:49:26;6.57;;;3.87;;
3995;SDS011;2012;49.794;9.722;2023-01-29T13:51:53;4.37;;;3.97;;
3995;SDS011;2012;49.794;9.722;2023-01-29T13:54:22;6.10;;;4.00;;
3995;SDS011;2012;49.794;9.722;2023-01-29T13:59:24;5.93;;;4.20;;
3995;SDS011;2012;49.794;9.722;2023-01-29T14:02:22;3.93;;;3.63;;
3995;SDS011;2012;49.794;9.722;2023-01-29T14:04:51;4.37;;;3.67;;
3995;SDS011;2012;49.794;9.722;2023-01-29T14:10:27;4.90;;;3.90;;
3995;SDS011;2012;49.794;9.722;2023-01-29T14:15:29;4.77;;;4.13;;
3995;SDS011;2012;49.794;9.722;2023-01-29T14:20:37;6.47;;;4.30;;
3995;SDS011;2012;49.794;9.722;2023-01-29T14:23:30;4.63;;;4.07;;
3995;SDS011;2012;49.794;9.722;2023-01-29T14:25:59;6.20;;;4.43;;
3995;SDS011;2012;49.794;9.722;2023-01-29T14:28:28;4.57;;;3.80;;
3995;SDS011;2012;49.794;9.722;2023-01-29T14:30:57;6.57;;;4.33;;
3995;SDS011;2012;49.794;9.722;2023-01-29T14:33:32;5.40;;;4.60;;
3995;SDS011;2012;49.794;9.722;2023-01-29T14:36:05;4.47;;;4.07;;
3995;SDS011;2012;49.794;9.722;2023-01-29T14:38:37;8.17;;;4.30;;
3995;SDS011;2012;49.794;9.722;2023-01-29T14:41:17;5.40;;;3.23;;
3995;SDS011;2012;49.794;9.722;2023-01-29T14:47:00;6.40;;;4.90;;
3995;SDS011;2012;49.794;9.722;2023-01-29T14:49:49;6.17;;;4.40;;
3995;SDS011;2012;49.794;9.722;2023-01-29T14:52:23;7.17;;;4.90;;
3995;SDS011;2012;49.794;9.722;2023-01-29T14:55:14;9.30;;;6.60;;
3995;SDS011;2012;49.794;9.722;2023-01-29T14:57:50;6.47;;;4.93;;
3995;SDS011;2012;49.794;9.722;2023-01-29T15:00:35;9.20;;;5.83;;
3995;SDS011;2012;49.794;9.722;2023-01-29T15:03:11;5.17;;;4.40;;
3995;SDS011;2012;49.794;9.722;2023-01-29T15:05:42;6.17;;;5.40;;
3995;SDS011;2012;49.794;9.722;2023-01-29T15:10:56;6.53;;;5.90;;
3995;SDS011;2012;49.794;9.722;2023-01-29T15:13:46;6.37;;;4.73;;
3995;SDS011;2012;49.794;9.722;2023-01-29T15:16:39;8.30;;;5.20;;
3995;SDS011;2012;49.794;9.722;2023-01-29T15:19:13;6.40;;;4.17;;
3995;SDS011;2012;49.794;9.722;2023-01-29T15:24:44;4.50;;;4.10;;
3995;SDS011;2012;49.794;9.722;2023-01-29T15:27:14;7.40;;;5.70;;
3995;SDS011;2012;49.794;9.722;2023-01-29T15:29:43;6.83;;;4.73;;
3995;SDS011;2012;49.794;9.722;2023-01-29T15:32:24;5.10;;;4.00;;
3995;SDS011;2012;49.794;9.722;2023-01-29T15:34:54;5.20;;;4.00;;
3995;SDS011;2012;49.794;9.722;2023-01-29T15:37:26;4.43;;;3.90;;
3995;SDS011;2012;49.794;9.722;2023-01-29T15:39:55;5.37;;;3.87;;
3995;SDS011;2012;49.794;9.722;2023-01-29T15:42:22;5.70;;;4.63;;
3995;SDS011;2012;49.794;9.722;2023-01-29T15:44:52;5.40;;;4.27;;
3995;SDS011;2012;49.794;9.722;2023-01-29T15:47:22;6.60;;;4.23;;
3995;SDS011;2012;49.794;9.722;2023-01-29T15:49:55;5.70;;;5.20;;
3995;SDS011;2012;49.794;9.722;2023-01-29T15:52:23;10.33;;;7.97;;
3995;SDS011;2012;49.794;9.722;2023-01-29T15:55:00;7.00;;;5.37;;
3995;SDS011;2012;49.794;9.722;2023-01-29T15:57:34;6.83;;;6.13;;
3995;SDS011;2012;49.794;9.722;2023-01-29T16:00:18;4.73;;;4.23;;
3995;SDS011;2012;49.794;9.722;2023-01-29T16:02:50;15.90;;;4.30;;
3995;SDS011;2012;49.794;9.722;2023-01-29T16:05:18;4.37;;;3.97;;
3995;SDS011;2012;49.794;9.722;2023-01-29T16:07:48;4.90;;;4.50;;
3995;SDS011;2012;49.794;9.722;2023-01-29T16:10:18;6.47;;;4.73;;
3995;SDS011;2012;49.794;9.722;2023-01-29T16:12:48;8.37;;;5.40;;
3995;SDS011;2012;49.794;9.722;2023-01-29T16:15:29;9.67;;;5.13;;
3995;SDS011;2012;49.794;9.722;2023-01-29T16:18:02;5.80;;;4.60;;
3995;SDS011;2012;49.794;9.722;2023-01-29T16:20:43;6.93;;;4.07;;
3995;SDS011;2012;49.794;9.722;2023-01-29T16:23:15;9.37;;;5.10;;
3995;SDS011;2012;49.794;9.722;2023-01-29T16:25:50;10.80;;;7.53;;
3995;SDS011;2012;49.794;9.722;2023-01-29T16:28:17;8.80;;;6.13;;
3995;SDS011;2012;49.794;9.722;2023-01-29T16:30:44;9.60;;;5.50;;
3995;SDS011;2012;49.794;9.722;2023-01-29T16:33:12;7.90;;;5.90;;
3995;SDS011;2012;49.794;9.722;2023-01-29T16:35:42;7.37;;;5.73;;
3995;SDS011;2012;49.794;9.722;2023-01-29T16:38:27;15.63;;;5.43;;
3995;SDS011;2012;49.794;9.722;2023-01-29T16:41:12;5.90;;;5.27;;
3995;SDS011;2012;49.794;9.722;2023-01-29T16:43:47;8.63;;;5.00;;
3995;SDS011;2012;49.794;9.722;2023-01-29T16:46:23;6.70;;;4.80;;
3995;SDS011;2012;49.794;9.722;2023-01-29T16:48:52;7.13;;;4.77;;
3995;SDS011;2012;49.794;9.722;2023-01-29T16:53:54;9.40;;;6.30;;
3995;SDS011;2012;49.794;9.722;2023-01-29T16:56:21;6.27;;;4.77;;
3995;SDS011;2012;49.794;9.722;2023-01-29T16:58:49;8.80;;;5.50;;
3995;SDS011;2012;49.794;9.722;2023-01-29T17:01:17;8.30;;;5.90;;
3995;SDS011;2012;49.794;9.722;2023-01-29T17:03:44;10.17;;;6.50;;
3995;SDS011;2012;49.794;9.722;2023-01-29T17:06:32;15.77;;;8.87;;
3995;SDS011;2012;49.794;9.722;2023-01-29T17:09:00;22.30;;;12.17;;
3995;SDS011;2012;49.794;9.722;2023-01-29T17:11:32;11.40;;;8.40;;
3995;SDS011;2012;49.794;9.722;2023-01-29T17:14:02;11.20;;;8.33;;
3995;SDS011;2012;49.794;9.722;2023-01-29T17:16:33;10.50;;;7.50;;
3995;SDS011;2012;49.794;9.722;2023-01-29T17:19:10;8.50;;;7.13;;
3995;SDS011;2012;49.794;9.722;2023-01-29T17:21:43;12.07;;;8.63;;
3995;SDS011;2012;49.794;9.722;2023-01-29T17:24:10;12.23;;;7.93;;
3995;SDS011;2012;49.794;9.722;2023-01-29T17:26:37;15.53;;;8.77;;
3995;SDS011;2012;49.794;9.722;2023-01-29T17:29:04;11.63;;;8.40;;
3995;SDS011;2012;49.794;9.722;2023-01-29T17:31:33;12.40;;;7.40;;
3995;SDS011;2012;49.794;9.722;2023-01-29T17:34:00;25.90;;;13.20;;